createdAt,value
2023-04-11T00:01:23.748Z,2.60
2023-04-11T00:03:50.764Z,2.87
2023-04-11T00:06:17.640Z,2.83
2023-04-11T00:08:44.532Z,2.80
2023-04-11T00:11:11.266Z,2.60
2023-04-11T00:13:38.422Z,2.33
2023-04-11T00:16:05.568Z,2.07
2023-04-11T00:18:35.905Z,2.20
2023-04-11T00:21:06.462Z,2.47
2023-04-11T00:23:33.067Z,2.20
2023-04-11T00:25:59.690Z,2.50
2023-04-11T00:28:26.286Z,2.40
2023-04-11T00:30:52.965Z,2.27
2023-04-11T00:33:19.916Z,2.27
2023-04-11T00:35:46.547Z,2.50
2023-04-11T00:38:13.211Z,2.67
2023-04-11T00:40:40.171Z,2.60
2023-04-11T00:43:06.799Z,2.43
2023-04-11T00:45:33.629Z,2.13
2023-04-11T00:48:01.125Z,1.90
2023-04-11T00:50:28.694Z,2.10
2023-04-11T00:52:56.664Z,1.80
2023-04-11T00:55:23.706Z,2.70
2023-04-11T00:57:53.927Z,2.43
2023-04-11T01:00:20.622Z,2.63
2023-04-11T01:02:47.744Z,1.80
2023-04-11T01:05:15.417Z,2.03
2023-04-11T01:07:45.652Z,2.10
2023-04-11T01:10:13.802Z,2.57
2023-04-11T01:12:41.955Z,1.70
2023-04-11T01:15:09.353Z,2.17
2023-04-11T01:17:36.228Z,1.93
2023-04-11T01:20:03.180Z,2.20
2023-04-11T01:22:30.643Z,1.90
2023-04-11T01:24:57.435Z,1.63
2023-04-11T01:27:24.314Z,2.23
2023-04-11T01:29:51.033Z,1.93
2023-04-11T01:32:17.744Z,1.90
2023-04-11T01:34:47.205Z,2.20
2023-04-11T01:37:14.021Z,1.87
2023-04-11T01:39:40.887Z,1.77
2023-04-11T01:42:09.061Z,2.20
2023-04-11T01:44:36.825Z,1.57
2023-04-11T01:47:03.874Z,2.10
2023-04-11T01:49:30.845Z,1.53
2023-04-11T01:51:57.609Z,1.60
2023-04-11T01:54:24.389Z,1.50
2023-04-11T01:56:52.226Z,1.37
2023-04-11T01:59:19.530Z,1.83
2023-04-11T02:01:46.482Z,1.63
2023-04-11T02:04:13.338Z,2.07
2023-04-11T02:06:41.502Z,1.77
2023-04-11T02:09:08.689Z,1.37
2023-04-11T02:11:36.000Z,1.60
2023-04-11T02:14:03.628Z,1.47
2023-04-11T02:16:55.461Z,1.73
2023-04-11T02:19:23.426Z,1.90
2023-04-11T02:21:52.117Z,1.83
2023-04-11T02:24:19.201Z,1.50
2023-04-11T02:26:46.071Z,1.80
2023-04-11T02:29:12.784Z,1.37
2023-04-11T02:31:39.528Z,1.50
2023-04-11T02:34:06.427Z,1.60
2023-04-11T02:36:34.845Z,1.60
2023-04-11T02:39:01.692Z,1.70
2023-04-11T02:41:28.353Z,1.40
2023-04-11T02:43:55.266Z,1.33
2023-04-11T02:46:22.377Z,1.90
2023-04-11T02:48:49.294Z,1.50
2023-04-11T02:51:15.993Z,1.60
2023-04-11T02:53:42.677Z,2.13
2023-04-11T02:56:10.880Z,1.50
2023-04-11T02:58:41.742Z,1.60
2023-04-11T03:01:12.001Z,1.87
2023-04-11T03:03:39.213Z,2.30
2023-04-11T03:06:07.282Z,1.57
2023-04-11T03:08:37.246Z,1.80
2023-04-11T03:11:05.030Z,1.80
2023-04-11T03:13:32.026Z,1.93
2023-04-11T03:15:59.534Z,1.80
2023-04-11T03:18:28.971Z,1.77
2023-04-11T03:20:56.815Z,1.60
2023-04-11T03:23:23.617Z,2.23
2023-04-11T03:25:50.877Z,2.20
2023-04-11T03:28:19.046Z,2.03
2023-04-11T03:30:46.380Z,1.50
2023-04-11T03:33:18.241Z,1.60
2023-04-11T03:35:45.046Z,1.90
2023-04-11T03:38:11.716Z,1.60
2023-04-11T03:40:38.440Z,2.13
2023-04-11T03:43:16.742Z,1.73
2023-04-11T03:45:43.695Z,1.73
2023-04-11T03:48:32.210Z,1.77
2023-04-11T03:51:03.249Z,1.90
2023-04-11T03:53:38.453Z,1.60
2023-04-11T03:56:19.252Z,1.83
2023-04-11T03:58:45.959Z,2.27
2023-04-11T04:01:14.002Z,1.70
2023-04-11T04:03:41.267Z,1.60
2023-04-11T04:06:11.792Z,2.00
2023-04-11T04:08:39.581Z,2.00
2023-04-11T04:11:06.880Z,1.90
2023-04-11T04:13:36.147Z,1.70
2023-04-11T04:16:11.578Z,1.83
2023-04-11T04:18:41.220Z,1.80
2023-04-11T04:21:08.683Z,1.50
2023-04-11T04:23:39.097Z,1.97
2023-04-11T04:26:24.903Z,1.90
2023-04-11T04:29:06.508Z,2.00
2023-04-11T04:31:50.644Z,1.60
2023-04-11T04:34:21.943Z,1.80
2023-04-11T04:36:49.968Z,1.23
2023-04-11T04:39:25.407Z,2.00
2023-04-11T04:41:58.385Z,1.60
2023-04-11T04:44:30.582Z,1.70
2023-04-11T04:47:02.282Z,1.60
2023-04-11T04:49:29.263Z,1.73
2023-04-11T04:51:55.881Z,1.73
2023-04-11T04:54:23.711Z,1.57
2023-04-11T04:56:50.560Z,1.50
2023-04-11T04:59:18.683Z,1.40
2023-04-11T05:01:51.646Z,1.63
2023-04-11T05:04:23.769Z,1.40
2023-04-11T05:06:54.320Z,1.20
2023-04-11T05:09:21.190Z,1.40
2023-04-11T05:11:50.576Z,1.77
2023-04-11T05:14:20.619Z,1.43
2023-04-11T05:16:47.416Z,1.90
2023-04-11T05:19:14.116Z,1.73
2023-04-11T05:21:45.357Z,1.80
2023-04-11T05:24:12.145Z,2.03
2023-04-11T05:26:39.826Z,1.73
2023-04-11T05:29:07.116Z,2.00
2023-04-11T05:31:34.012Z,1.70
2023-04-11T05:34:02.394Z,1.70
2023-04-11T05:36:29.426Z,1.60
2023-04-11T05:38:56.246Z,1.57
2023-04-11T05:41:22.967Z,1.47
2023-04-11T05:43:49.694Z,2.13
2023-04-11T05:46:17.431Z,2.47
2023-04-11T05:48:44.182Z,1.40
2023-04-11T05:51:10.925Z,1.70
2023-04-11T05:53:37.522Z,1.83
2023-04-11T05:56:04.495Z,1.63
2023-04-11T05:58:31.209Z,1.70
2023-04-11T06:00:59.706Z,1.87
2023-04-11T06:03:27.101Z,1.80
2023-04-11T06:05:54.465Z,1.40
2023-04-11T06:08:21.504Z,1.50
2023-04-11T06:10:48.278Z,1.73
2023-04-11T06:13:15.009Z,1.70
2023-04-11T06:15:41.669Z,1.50
2023-04-11T06:18:08.333Z,1.80
2023-04-11T06:20:35.159Z,1.93
2023-04-11T06:23:01.841Z,1.50
2023-04-11T06:25:28.496Z,2.00
2023-04-11T06:27:55.109Z,2.07
2023-04-11T06:30:21.766Z,2.27
2023-04-11T06:32:48.554Z,1.60
2023-04-11T06:35:15.180Z,2.47
2023-04-11T06:37:42.404Z,1.80
2023-04-11T06:40:09.541Z,2.50
2023-04-11T06:42:36.223Z,2.20
2023-04-11T06:45:04.769Z,1.90
2023-04-11T06:47:31.519Z,1.67
2023-04-11T06:49:58.161Z,1.97
2023-04-11T06:52:27.571Z,1.57
2023-04-11T06:54:54.835Z,2.50
2023-04-11T06:57:21.894Z,1.80
2023-04-11T06:59:48.481Z,1.80
2023-04-11T07:02:15.617Z,2.00
2023-04-11T07:04:42.435Z,1.83
2023-04-11T07:07:09.161Z,1.93
2023-04-11T07:09:36.332Z,2.23
2023-04-11T07:12:03.013Z,1.97
2023-04-11T07:14:29.672Z,2.23
2023-04-11T07:16:56.268Z,2.35
2023-04-11T07:19:22.931Z,1.83
2023-04-11T07:21:49.767Z,2.43
2023-04-11T07:24:18.583Z,1.80
2023-04-11T07:26:46.686Z,2.10
2023-04-11T07:29:14.855Z,2.40
2023-04-11T07:31:41.857Z,1.77
2023-04-11T07:34:08.632Z,2.70
2023-04-11T07:36:35.435Z,1.90
2023-04-11T07:39:04.122Z,2.00
2023-04-11T07:41:30.831Z,1.77
2023-04-11T07:43:57.687Z,2.00
2023-04-11T07:46:24.640Z,2.70
2023-04-11T07:48:51.285Z,2.07
2023-04-11T07:51:17.955Z,2.10
2023-04-11T07:53:44.848Z,2.20
2023-04-11T07:56:12.117Z,1.70
2023-04-11T07:58:38.777Z,5.33
2023-04-11T08:01:06.978Z,8.90
2023-04-11T08:03:33.770Z,4.40
2023-04-11T08:06:04.023Z,3.10
2023-04-11T08:08:30.718Z,6.00
2023-04-11T08:10:57.420Z,4.20
2023-04-11T08:13:24.020Z,3.50
2023-04-11T08:15:50.751Z,3.80
2023-04-11T08:18:21.365Z,3.27
2023-04-11T08:20:48.843Z,2.97
2023-04-11T08:23:15.517Z,3.57
2023-04-11T08:25:42.121Z,3.67
2023-04-11T08:28:10.820Z,2.77
2023-04-11T08:30:37.594Z,5.00
2023-04-11T08:33:04.330Z,2.97
2023-04-11T08:35:31.076Z,2.70
2023-04-11T08:37:58.126Z,6.70
2023-04-11T08:40:26.865Z,4.67
2023-04-11T08:43:00.839Z,3.10
2023-04-11T08:45:28.721Z,3.10
2023-04-11T08:47:55.428Z,3.70
2023-04-11T08:50:22.322Z,4.30
2023-04-11T08:52:50.387Z,8.47
2023-04-11T08:55:16.982Z,2.90
2023-04-11T08:57:43.891Z,4.63
2023-04-11T09:00:14.640Z,7.07
2023-04-11T09:03:01.230Z,6.43
2023-04-11T09:05:41.136Z,2.50
2023-04-11T09:08:10.745Z,3.03
2023-04-11T09:10:39.025Z,2.70
2023-04-11T09:13:31.998Z,2.63
2023-04-11T09:16:10.445Z,2.20
2023-04-11T09:18:46.413Z,3.37
2023-04-11T09:21:15.325Z,4.63
2023-04-11T09:23:42.118Z,2.43
2023-04-11T09:26:11.123Z,2.57
2023-04-11T09:28:53.893Z,2.50
2023-04-11T09:31:21.802Z,4.10
2023-04-11T09:33:56.833Z,2.87
2023-04-11T09:36:27.216Z,3.57
2023-04-11T09:38:54.154Z,3.20
2023-04-11T09:41:35.917Z,2.93
2023-04-11T09:44:02.855Z,3.30
2023-04-11T09:46:29.657Z,2.50
2023-04-11T09:48:57.158Z,6.50
2023-04-11T09:51:35.865Z,2.70
2023-04-11T09:54:05.843Z,3.07
2023-04-11T09:56:34.930Z,4.20
2023-04-11T09:59:03.069Z,3.00
2023-04-11T10:01:29.833Z,3.17
2023-04-11T10:03:57.272Z,4.13
2023-04-11T10:06:38.515Z,3.47
2023-04-11T10:09:10.829Z,8.00
2023-04-11T10:11:41.311Z,9.90
2023-04-11T10:14:08.016Z,2.30
2023-04-11T10:16:34.953Z,5.77
2023-04-11T10:19:01.967Z,2.80
2023-04-11T10:21:34.630Z,3.73
2023-04-11T10:24:18.449Z,3.27
2023-04-11T10:26:52.385Z,7.03
2023-04-11T10:29:28.096Z,3.23
2023-04-11T10:32:24.713Z,4.43
2023-04-11T10:34:54.152Z,2.80
2023-04-11T10:37:34.944Z,4.10
2023-04-11T10:40:12.275Z,2.93
2023-04-11T10:42:42.300Z,2.63
2023-04-11T10:45:23.460Z,2.80
2023-04-11T10:48:01.358Z,3.67
2023-04-11T10:50:28.127Z,3.20
2023-04-11T10:52:59.562Z,2.50
2023-04-11T10:55:28.855Z,3.97
2023-04-11T10:58:09.558Z,2.27
2023-04-11T11:01:21.285Z,1.90
2023-04-11T11:03:58.413Z,6.00
2023-04-11T11:06:26.488Z,3.20
2023-04-11T11:08:54.156Z,2.90
2023-04-11T11:11:20.993Z,5.40
2023-04-11T11:13:51.153Z,3.57
2023-04-11T11:16:22.833Z,2.77
2023-04-11T11:18:54.084Z,3.03
2023-04-11T11:21:27.902Z,2.77
2023-04-11T11:24:00.629Z,2.57
2023-04-11T11:26:43.930Z,2.23
2023-04-11T11:29:11.280Z,5.10
2023-04-11T11:31:45.483Z,2.53
2023-04-11T11:34:23.421Z,3.27
2023-04-11T11:36:51.137Z,2.00
2023-04-11T11:39:19.517Z,3.83
2023-04-11T11:41:47.330Z,3.60
2023-04-11T11:44:24.450Z,3.17
2023-04-11T11:47:09.099Z,3.93
2023-04-11T11:49:49.539Z,3.07
2023-04-11T11:52:41.989Z,3.40
2023-04-11T11:55:17.800Z,2.90
2023-04-11T11:57:45.815Z,3.57
2023-04-11T12:00:13.913Z,3.57
2023-04-11T12:02:43.058Z,3.17
2023-04-11T12:05:13.442Z,4.60
2023-04-11T12:07:40.507Z,3.07
2023-04-11T12:10:09.133Z,2.40
2023-04-11T12:12:38.165Z,2.17
2023-04-11T12:15:19.007Z,2.43
2023-04-11T12:17:51.361Z,1.77
2023-04-11T12:20:26.360Z,2.30
2023-04-11T12:22:54.828Z,2.70
2023-04-11T12:25:22.527Z,2.57
2023-04-11T12:27:49.213Z,2.73
2023-04-11T12:30:16.065Z,3.07
2023-04-11T12:32:43.894Z,3.27
2023-04-11T12:35:11.790Z,2.43
2023-04-11T12:37:38.991Z,2.77
2023-04-11T12:40:12.022Z,2.30
2023-04-11T12:45:11.728Z,2.87
2023-04-11T12:47:39.263Z,2.50
2023-04-11T12:50:07.062Z,4.37
2023-04-11T12:52:34.541Z,4.90
2023-04-11T12:55:01.439Z,2.80
2023-04-11T12:57:31.283Z,3.20
2023-04-11T12:59:58.017Z,2.40
2023-04-11T13:02:24.881Z,3.83
2023-04-11T13:04:55.345Z,3.83
2023-04-11T13:07:22.134Z,2.63
2023-04-11T13:09:49.816Z,2.67
2023-04-11T13:12:16.539Z,3.67
2023-04-11T13:14:43.299Z,4.33
2023-04-11T13:17:09.999Z,4.13
2023-04-11T13:19:36.653Z,2.87
2023-04-11T13:22:03.288Z,2.30
2023-04-11T13:24:31.925Z,4.30
2023-04-11T13:26:59.082Z,5.60
2023-04-11T13:29:25.831Z,9.03
2023-04-11T13:31:52.879Z,6.77
2023-04-11T13:34:19.700Z,7.23
2023-04-11T13:36:46.365Z,15.97
2023-04-11T13:39:13.561Z,3.83
2023-04-11T13:41:40.213Z,7.63
2023-04-11T13:44:06.784Z,4.60
2023-04-11T13:46:33.442Z,7.93
2023-04-11T13:49:00.504Z,13.53
2023-04-11T13:51:27.462Z,4.97
2023-04-11T13:53:54.065Z,6.73
2023-04-11T13:56:20.695Z,4.13
2023-04-11T13:58:49.331Z,3.23
2023-04-11T14:01:16.078Z,2.70
2023-04-11T14:03:43.172Z,3.03
2023-04-11T14:06:10.214Z,2.80
2023-04-11T14:08:37.170Z,6.53
2023-04-11T14:11:04.036Z,4.63
2023-04-11T14:13:31.860Z,5.23
2023-04-11T14:16:08.065Z,3.50
2023-04-11T14:18:36.077Z,6.83
2023-04-11T14:21:04.682Z,4.37
2023-04-11T14:23:31.551Z,5.30
2023-04-11T14:25:58.273Z,5.30
2023-04-11T14:28:26.562Z,2.73
2023-04-11T14:30:53.947Z,3.83
2023-04-11T14:33:21.082Z,3.70
2023-04-11T14:35:47.915Z,4.90
2023-04-11T14:38:15.715Z,4.00
2023-04-11T14:40:42.879Z,3.00
2023-04-11T14:43:09.539Z,3.10
2023-04-11T14:45:36.446Z,4.20
2023-04-11T14:48:03.341Z,2.77
2023-04-11T14:50:30.204Z,3.50
2023-04-11T14:52:57.126Z,3.60
2023-04-11T14:55:24.164Z,2.57
2023-04-11T14:57:55.449Z,3.30
2023-04-11T15:00:24.717Z,2.97
2023-04-11T15:02:57.229Z,3.97
2023-04-11T15:05:24.500Z,4.60
2023-04-11T15:07:52.703Z,5.00
2023-04-11T15:10:21.866Z,7.37
2023-04-11T15:12:49.072Z,4.17
2023-04-11T15:15:16.108Z,7.97
2023-04-11T15:17:49.062Z,4.53
2023-04-11T15:20:16.559Z,4.35
2023-04-11T15:22:45.419Z,3.88
2023-04-11T15:25:14.584Z,3.40
2023-04-11T15:27:42.333Z,3.30
2023-04-11T15:30:10.366Z,4.73
2023-04-11T15:32:42.936Z,6.13
2023-04-11T15:35:10.256Z,7.63
2023-04-11T15:37:37.082Z,6.80
2023-04-11T15:40:07.139Z,4.30
2023-04-11T15:42:35.345Z,4.03
2023-04-11T15:45:02.702Z,3.80
2023-04-11T15:47:30.498Z,4.27
2023-04-11T15:49:58.979Z,4.17
2023-04-11T15:52:26.301Z,4.27
2023-04-11T15:54:52.940Z,5.20
2023-04-11T15:57:19.656Z,4.10
2023-04-11T15:59:46.476Z,4.57
2023-04-11T16:02:15.080Z,3.40
2023-04-11T16:04:44.167Z,3.40
2023-04-11T16:07:12.740Z,3.03
2023-04-11T16:09:39.343Z,3.77
2023-04-11T16:12:06.104Z,3.07
2023-04-11T16:14:32.884Z,2.90
2023-04-11T16:16:59.716Z,3.23
2023-04-11T16:19:26.329Z,2.70
2023-04-11T16:21:53.578Z,2.40
2023-04-11T16:24:20.925Z,2.67
2023-04-11T16:26:47.622Z,2.73
2023-04-11T16:29:15.297Z,4.40
2023-04-11T16:31:42.032Z,4.53
2023-04-11T16:34:08.674Z,4.17
2023-04-11T16:36:35.468Z,4.53
2023-04-11T16:39:04.179Z,4.83
2023-04-11T16:41:31.451Z,3.90
2023-04-11T16:43:58.365Z,2.90
2023-04-11T16:46:25.585Z,3.40
2023-04-11T16:48:52.269Z,6.20
2023-04-11T16:51:18.938Z,6.10
2023-04-11T16:53:47.329Z,6.67
2023-04-11T16:56:14.174Z,6.27
2023-04-11T16:58:41.479Z,8.13
2023-04-11T17:01:08.106Z,7.07
2023-04-11T17:03:35.012Z,6.50
2023-04-11T17:06:02.111Z,7.47
2023-04-11T17:08:28.765Z,5.43
2023-04-11T17:11:04.031Z,6.90
2023-04-11T17:13:31.263Z,10.40
2023-04-11T17:15:57.833Z,8.07
2023-04-11T17:18:24.549Z,6.20
2023-04-11T17:20:51.334Z,7.03
2023-04-11T17:23:19.441Z,9.83
2023-04-11T17:25:52.453Z,7.50
2023-04-11T17:28:19.418Z,7.80
2023-04-11T17:30:48.564Z,6.27
2023-04-11T17:33:16.298Z,5.50
2023-04-11T17:35:44.710Z,7.80
2023-04-11T17:38:12.537Z,4.73
2023-04-11T17:40:39.732Z,5.30
2023-04-11T17:43:07.267Z,5.20
2023-04-11T17:45:34.459Z,5.07
2023-04-11T17:48:02.483Z,5.13
2023-04-11T17:50:30.465Z,6.77
2023-04-11T17:52:57.421Z,9.13
2023-04-11T17:55:24.365Z,10.53
2023-04-11T17:57:51.533Z,4.80
2023-04-11T18:00:23.311Z,4.57
2023-04-11T18:02:52.444Z,4.67
2023-04-11T18:05:24.446Z,5.77
2023-04-11T18:07:54.836Z,3.27
2023-04-11T18:10:21.966Z,4.73
2023-04-11T18:12:53.625Z,6.30
2023-04-11T18:15:22.070Z,5.60
2023-04-11T18:17:48.877Z,4.80
2023-04-11T18:20:15.807Z,6.10
2023-04-11T18:22:51.669Z,4.90
2023-04-11T18:25:18.618Z,4.60
2023-04-11T18:27:45.580Z,3.30
2023-04-11T18:30:14.510Z,3.07
2023-04-11T18:32:49.390Z,4.13
2023-04-11T18:35:17.558Z,4.03
2023-04-11T18:37:47.585Z,4.87
2023-04-11T18:40:14.645Z,4.10
2023-04-11T18:42:43.336Z,4.27
2023-04-11T18:45:13.782Z,3.50
2023-04-11T18:47:45.636Z,3.37
2023-04-11T18:50:14.465Z,3.30
2023-04-11T18:52:42.907Z,2.73
2023-04-11T18:55:13.454Z,2.57
2023-04-11T18:57:41.855Z,2.53
2023-04-11T19:00:18.922Z,3.20
2023-04-11T19:02:47.582Z,2.97
2023-04-11T19:05:19.103Z,2.60
2023-04-11T19:07:56.022Z,2.47
2023-04-11T19:10:22.685Z,3.13
2023-04-11T19:12:49.628Z,3.60
2023-04-11T19:15:17.031Z,2.93
2023-04-11T19:17:47.188Z,2.73
2023-04-11T19:20:16.809Z,2.87
2023-04-11T19:22:44.317Z,3.27
2023-04-11T19:25:12.659Z,3.27
2023-04-11T19:27:41.968Z,2.80
2023-04-11T19:30:13.349Z,5.10
2023-04-11T19:32:45.576Z,6.70
2023-04-11T19:35:14.149Z,5.50
2023-04-11T19:37:43.451Z,6.27
2023-04-11T19:40:13.820Z,6.03
2023-04-11T19:42:41.900Z,5.80
2023-04-11T19:45:10.535Z,8.07
2023-04-11T19:47:39.154Z,6.90
2023-04-11T19:50:07.781Z,6.57
2023-04-11T19:52:35.508Z,6.57
2023-04-11T19:55:09.496Z,3.87
2023-04-11T19:57:38.741Z,4.30
2023-04-11T20:00:13.614Z,3.60
2023-04-11T20:02:46.133Z,3.30
2023-04-11T20:05:16.471Z,3.90
2023-04-11T20:07:44.147Z,3.30
2023-04-11T20:10:16.007Z,3.17
2023-04-11T20:12:46.093Z,3.33
2023-04-11T20:15:16.122Z,4.73
2023-04-11T20:17:45.926Z,2.80
2023-04-11T20:20:16.262Z,3.57
2023-04-11T20:22:45.153Z,2.93
2023-04-11T20:25:12.969Z,2.70
2023-04-11T20:27:40.807Z,2.60
2023-04-11T20:30:10.092Z,2.90
2023-04-11T20:32:41.194Z,10.07
2023-04-11T20:35:15.362Z,6.53
2023-04-11T20:37:43.746Z,4.70
2023-04-11T20:40:11.251Z,3.93
2023-04-11T20:42:40.051Z,3.53
2023-04-11T20:45:10.068Z,3.67
2023-04-11T20:47:41.660Z,3.37
2023-04-11T20:50:13.815Z,3.70
2023-04-11T20:52:46.709Z,7.37
2023-04-11T20:55:14.424Z,4.60
2023-04-11T20:57:41.728Z,5.93
2023-04-11T21:00:14.925Z,5.43
2023-04-11T21:02:46.845Z,3.70
2023-04-11T21:05:16.462Z,3.20
2023-04-11T21:07:44.284Z,3.83
2023-04-11T21:10:12.242Z,3.70
2023-04-11T21:12:41.979Z,3.27
2023-04-11T21:15:09.667Z,4.43
2023-04-11T21:17:37.315Z,4.93
2023-04-11T21:20:17.754Z,3.90
2023-04-11T21:22:49.581Z,3.30
2023-04-11T21:25:16.651Z,4.30
2023-04-11T21:27:43.521Z,4.17
2023-04-11T21:30:12.164Z,4.13
2023-04-11T21:32:39.685Z,4.10
2023-04-11T21:35:08.948Z,6.73
2023-04-11T21:37:36.101Z,5.03
2023-04-11T21:40:04.182Z,2.63
2023-04-11T21:42:31.358Z,7.40
2023-04-11T21:44:58.277Z,3.20
2023-04-11T21:47:25.106Z,7.87
2023-04-11T21:49:51.805Z,8.80
2023-04-11T21:52:18.544Z,7.77
2023-04-11T21:54:46.485Z,6.90
2023-04-11T21:57:13.347Z,7.50
2023-04-11T21:59:40.004Z,4.27
2023-04-11T22:02:07.111Z,4.53
2023-04-11T22:04:47.560Z,8.00
2023-04-11T22:07:26.520Z,6.80
2023-04-11T22:10:09.014Z,6.03
2023-04-11T22:12:36.555Z,6.50
2023-04-11T22:15:05.133Z,7.37
2023-04-11T22:17:32.444Z,4.70
2023-04-11T22:19:59.259Z,6.03
2023-04-11T22:22:32.365Z,5.67
2023-04-11T22:24:59.837Z,6.67
2023-04-11T22:27:27.232Z,4.40
2023-04-11T22:29:56.172Z,6.80
2023-04-11T22:32:23.767Z,5.63
2023-04-11T22:34:50.609Z,5.50
2023-04-11T22:37:17.841Z,2.80
2023-04-11T22:39:44.497Z,4.90
2023-04-11T22:42:11.866Z,4.87
2023-04-11T22:44:38.657Z,4.20
2023-04-11T22:47:11.387Z,4.60
2023-04-11T22:49:41.009Z,3.40
2023-04-11T22:52:15.007Z,3.37
2023-04-11T22:54:43.202Z,5.43
2023-04-11T22:57:10.375Z,5.20
2023-04-11T22:59:37.086Z,3.87
2023-04-11T23:02:03.990Z,4.83
2023-04-11T23:04:32.067Z,5.20
2023-04-11T23:06:59.332Z,4.50
2023-04-11T23:09:27.020Z,5.50
2023-04-11T23:11:53.665Z,4.27
2023-04-11T23:14:22.158Z,4.90
2023-04-11T23:16:48.917Z,3.70
2023-04-11T23:19:15.735Z,4.70
2023-04-11T23:21:42.916Z,3.30
2023-04-11T23:24:10.003Z,4.73
2023-04-11T23:26:37.046Z,3.60
2023-04-11T23:29:04.103Z,3.90
2023-04-11T23:31:31.714Z,2.90
2023-04-11T23:33:58.640Z,3.93
2023-04-11T23:36:27.559Z,3.10
2023-04-11T23:38:54.494Z,2.37
2023-04-11T23:41:21.167Z,3.53
2023-04-11T23:43:47.858Z,4.97
2023-04-11T23:46:15.107Z,6.87
2023-04-11T23:48:42.287Z,6.03
2023-04-11T23:51:08.928Z,9.17
2023-04-11T23:53:35.556Z,7.37
2023-04-11T23:56:02.231Z,6.13
2023-04-11T23:58:28.857Z,5.83
